sensor_id;sensor_type;location;lat;lon;timestamp;temperature;humidity
21039;DHT22;10678;51.002;4.786;2024-03-23T00:55:34;9.10;99.90
21039;DHT22;10678;51.002;4.786;2024-03-23T00:58:00;9.10;99.90
21039;DHT22;10678;51.002;4.786;2024-03-23T01:00:25;9.10;99.90
21039;DHT22;10678;51.002;4.786;2024-03-23T01:02:51;9.10;99.90
21039;DHT22;10678;51.002;4.786;2024-03-23T01:05:17;9.10;99.90
21039;DHT22;10678;51.002;4.786;2024-03-23T01:07:42;9.00;99.90
21039;DHT22;10678;51.002;4.786;2024-03-23T01:10:08;8.90;99.90
21039;DHT22;10678;51.002;4.786;2024-03-23T01:12:34;9.10;99.90
21039;DHT22;10678;51.002;4.786;2024-03-23T01:14:59;9.10;99.90
21039;DHT22;10678;51.002;4.786;2024-03-23T01:17:25;9.10;99.90
21039;DHT22;10678;51.002;4.786;2024-03-23T01:19:51;9.10;99.90
21039;DHT22;10678;51.002;4.786;2024-03-23T01:22:16;9.20;99.90
21039;DHT22;10678;51.002;4.786;2024-03-23T01:24:42;9.10;99.90
21039;DHT22;10678;51.002;4.786;2024-03-23T01:27:08;9.00;99.90
21039;DHT22;10678;51.002;4.786;2024-03-23T01:29:34;9.00;99.90
21039;DHT22;10678;51.002;4.786;2024-03-23T01:31:59;9.20;99.90
21039;DHT22;10678;51.002;4.786;2024-03-23T01:34:25;9.20;99.90
21039;DHT22;10678;51.002;4.786;2024-03-23T01:36:51;9.10;99.90
21039;DHT22;10678;51.002;4.786;2024-03-23T01:39:17;9.10;99.90
21039;DHT22;10678;51.002;4.786;2024-03-23T01:41:42;9.00;99.90
21039;DHT22;10678;51.002;4.786;2024-03-23T01:44:08;9.10;99.90
21039;DHT22;10678;51.002;4.786;2024-03-23T01:46:37;9.00;99.90
21039;DHT22;10678;51.002;4.786;2024-03-23T01:49:05;9.00;99.90
21039;DHT22;10678;51.002;4.786;2024-03-23T01:51:30;8.90;99.90
21039;DHT22;10678;51.002;4.786;2024-03-23T01:53:57;8.90;99.90
21039;DHT22;10678;51.002;4.786;2024-03-23T01:56:26;8.90;99.90
21039;DHT22;10678;51.002;4.786;2024-03-23T01:58:52;8.90;99.90
21039;DHT22;10678;51.002;4.786;2024-03-23T02:01:17;8.80;99.90
21039;DHT22;10678;51.002;4.786;2024-03-23T02:03:43;8.80;99.90
21039;DHT22;10678;51.002;4.786;2024-03-23T02:06:09;8.80;99.90
21039;DHT22;10678;51.002;4.786;2024-03-23T02:08:34;8.80;99.90
21039;DHT22;10678;51.002;4.786;2024-03-23T02:11:00;8.70;99.90
21039;DHT22;10678;51.002;4.786;2024-03-23T02:13:25;8.70;99.90
21039;DHT22;10678;51.002;4.786;2024-03-23T02:15:52;8.80;99.90
21039;DHT22;10678;51.002;4.786;2024-03-23T02:18:18;8.70;99.90
21039;DHT22;10678;51.002;4.786;2024-03-23T02:20:44;8.70;99.90
21039;DHT22;10678;51.002;4.786;2024-03-23T02:23:16;8.70;99.90
21039;DHT22;10678;51.002;4.786;2024-03-23T02:25:44;8.50;99.90
21039;DHT22;10678;51.002;4.786;2024-03-23T02:28:10;8.40;99.90
21039;DHT22;10678;51.002;4.786;2024-03-23T02:30:36;8.40;99.90
21039;DHT22;10678;51.002;4.786;2024-03-23T02:33:02;8.20;99.90
21039;DHT22;10678;51.002;4.786;2024-03-23T02:35:28;8.20;99.90
21039;DHT22;10678;51.002;4.786;2024-03-23T02:37:54;8.20;99.90
21039;DHT22;10678;51.002;4.786;2024-03-23T02:40:22;8.20;99.90
21039;DHT22;10678;51.002;4.786;2024-03-23T02:42:48;8.30;99.90
21039;DHT22;10678;51.002;4.786;2024-03-23T02:45:13;8.30;99.90
21039;DHT22;10678;51.002;4.786;2024-03-23T02:47:39;8.20;99.90
21039;DHT22;10678;51.002;4.786;2024-03-23T02:50:05;8.30;99.90
21039;DHT22;10678;51.002;4.786;2024-03-23T02:52:31;8.30;99.90
21039;DHT22;10678;51.002;4.786;2024-03-23T02:54:57;8.40;99.90
21039;DHT22;10678;51.002;4.786;2024-03-23T02:57:22;8.30;99.90
21039;DHT22;10678;51.002;4.786;2024-03-23T02:59:48;8.30;99.90
21039;DHT22;10678;51.002;4.786;2024-03-23T03:02:16;8.40;99.90
21039;DHT22;10678;51.002;4.786;2024-03-23T03:04:41;8.40;99.90
21039;DHT22;10678;51.002;4.786;2024-03-23T03:07:07;8.40;99.90
21039;DHT22;10678;51.002;4.786;2024-03-23T03:09:33;8.40;99.90
21039;DHT22;10678;51.002;4.786;2024-03-23T03:12:01;8.40;99.90
21039;DHT22;10678;51.002;4.786;2024-03-23T03:14:27;8.50;99.90
21039;DHT22;10678;51.002;4.786;2024-03-23T03:16:53;8.40;99.90
21039;DHT22;10678;51.002;4.786;2024-03-23T03:19:19;8.40;99.90
21039;DHT22;10678;51.002;4.786;2024-03-23T03:21:45;8.50;99.90
21039;DHT22;10678;51.002;4.786;2024-03-23T03:24:10;8.50;99.90
21039;DHT22;10678;51.002;4.786;2024-03-23T03:26:36;8.40;99.90
21039;DHT22;10678;51.002;4.786;2024-03-23T03:29:02;8.40;99.90
21039;DHT22;10678;51.002;4.786;2024-03-23T03:31:28;8.50;99.90
21039;DHT22;10678;51.002;4.786;2024-03-23T03:33:53;8.40;99.90
21039;DHT22;10678;51.002;4.786;2024-03-23T03:36:19;8.40;99.90
21039;DHT22;10678;51.002;4.786;2024-03-23T03:38:45;8.40;99.90
21039;DHT22;10678;51.002;4.786;2024-03-23T03:41:11;8.40;99.90
21039;DHT22;10678;51.002;4.786;2024-03-23T03:43:36;8.30;99.90
21039;DHT22;10678;51.002;4.786;2024-03-23T03:46:03;8.30;99.90
21039;DHT22;10678;51.002;4.786;2024-03-23T03:48:29;8.20;99.90
21039;DHT22;10678;51.002;4.786;2024-03-23T03:50:55;8.30;99.90
21039;DHT22;10678;51.002;4.786;2024-03-23T03:53:21;8.20;99.90
21039;DHT22;10678;51.002;4.786;2024-03-23T03:55:46;8.20;99.90
21039;DHT22;10678;51.002;4.786;2024-03-23T03:58:12;8.20;99.90
21039;DHT22;10678;51.002;4.786;2024-03-23T04:00:38;8.10;99.90
21039;DHT22;10678;51.002;4.786;2024-03-23T04:03:03;8.10;99.90
21039;DHT22;10678;51.002;4.786;2024-03-23T04:05:29;8.00;99.90
21039;DHT22;10678;51.002;4.786;2024-03-23T04:07:55;8.00;99.90
21039;DHT22;10678;51.002;4.786;2024-03-23T04:10:21;8.00;99.90
21039;DHT22;10678;51.002;4.786;2024-03-23T04:12:47;7.90;99.90
21039;DHT22;10678;51.002;4.786;2024-03-23T04:15:13;8.00;99.90
21039;DHT22;10678;51.002;4.786;2024-03-23T04:17:39;8.00;99.90
21039;DHT22;10678;51.002;4.786;2024-03-23T04:20:05;8.10;99.90
21039;DHT22;10678;51.002;4.786;2024-03-23T04:22:34;8.10;99.90
21039;DHT22;10678;51.002;4.786;2024-03-23T04:25:00;8.10;99.90
21039;DHT22;10678;51.002;4.786;2024-03-23T04:27:35;8.10;99.90
21039;DHT22;10678;51.002;4.786;2024-03-23T04:30:01;8.10;99.90
21039;DHT22;10678;51.002;4.786;2024-03-23T04:32:27;8.10;99.90
21039;DHT22;10678;51.002;4.786;2024-03-23T04:34:53;8.00;99.90
21039;DHT22;10678;51.002;4.786;2024-03-23T04:37:20;8.10;99.90
21039;DHT22;10678;51.002;4.786;2024-03-23T04:39:46;8.10;99.90
21039;DHT22;10678;51.002;4.786;2024-03-23T04:42:11;8.10;99.90
21039;DHT22;10678;51.002;4.786;2024-03-23T04:44:37;8.00;99.90
21039;DHT22;10678;51.002;4.786;2024-03-23T04:47:03;7.90;99.90
21039;DHT22;10678;51.002;4.786;2024-03-23T04:49:30;7.90;99.90
21039;DHT22;10678;51.002;4.786;2024-03-23T04:51:56;7.90;99.90
21039;DHT22;10678;51.002;4.786;2024-03-23T04:54:22;7.90;99.90
21039;DHT22;10678;51.002;4.786;2024-03-23T04:56:47;7.90;99.90
21039;DHT22;10678;51.002;4.786;2024-03-23T04:59:13;7.90;99.90
21039;DHT22;10678;51.002;4.786;2024-03-23T05:01:38;7.90;99.90
21039;DHT22;10678;51.002;4.786;2024-03-23T05:04:07;7.90;99.90
21039;DHT22;10678;51.002;4.786;2024-03-23T05:06:33;8.10;99.90
21039;DHT22;10678;51.002;4.786;2024-03-23T05:09:00;8.10;99.90
21039;DHT22;10678;51.002;4.786;2024-03-23T05:11:27;8.00;99.90
21039;DHT22;10678;51.002;4.786;2024-03-23T05:13:52;7.90;99.90
21039;DHT22;10678;51.002;4.786;2024-03-23T05:16:18;7.80;99.90
21039;DHT22;10678;51.002;4.786;2024-03-23T05:18:43;7.90;99.90
21039;DHT22;10678;51.002;4.786;2024-03-23T05:21:09;7.80;99.90
21039;DHT22;10678;51.002;4.786;2024-03-23T05:23:34;7.80;99.90
21039;DHT22;10678;51.002;4.786;2024-03-23T05:26:00;7.80;99.90
21039;DHT22;10678;51.002;4.786;2024-03-23T05:28:26;7.50;99.90
21039;DHT22;10678;51.002;4.786;2024-03-23T05:30:55;7.50;99.90
21039;DHT22;10678;51.002;4.786;2024-03-23T05:33:22;7.60;99.90
21039;DHT22;10678;51.002;4.786;2024-03-23T05:35:57;7.60;99.90
21039;DHT22;10678;51.002;4.786;2024-03-23T05:38:22;7.60;99.90
21039;DHT22;10678;51.002;4.786;2024-03-23T05:40:58;7.70;99.90
21039;DHT22;10678;51.002;4.786;2024-03-23T05:43:24;7.80;99.90
21039;DHT22;10678;51.002;4.786;2024-03-23T05:45:57;7.70;99.90
21039;DHT22;10678;51.002;4.786;2024-03-23T05:48:23;7.70;99.90
21039;DHT22;10678;51.002;4.786;2024-03-23T05:50:49;7.60;99.90
21039;DHT22;10678;51.002;4.786;2024-03-23T05:53:15;7.50;99.90
21039;DHT22;10678;51.002;4.786;2024-03-23T05:55:41;7.50;99.90
21039;DHT22;10678;51.002;4.786;2024-03-23T05:58:07;7.40;99.90
21039;DHT22;10678;51.002;4.786;2024-03-23T06:00:33;7.50;99.90
21039;DHT22;10678;51.002;4.786;2024-03-23T06:02:58;7.50;99.90
21039;DHT22;10678;51.002;4.786;2024-03-23T06:05:24;7.40;99.90
21039;DHT22;10678;51.002;4.786;2024-03-23T06:07:49;7.40;99.90
21039;DHT22;10678;51.002;4.786;2024-03-23T06:10:15;7.30;99.90
21039;DHT22;10678;51.002;4.786;2024-03-23T06:12:41;7.40;99.90
21039;DHT22;10678;51.002;4.786;2024-03-23T06:15:07;7.40;99.90
21039;DHT22;10678;51.002;4.786;2024-03-23T06:17:36;7.60;99.90
21039;DHT22;10678;51.002;4.786;2024-03-23T06:20:02;7.80;99.90
21039;DHT22;10678;51.002;4.786;2024-03-23T06:22:28;7.90;99.90
21039;DHT22;10678;51.002;4.786;2024-03-23T06:24:53;8.00;99.90
21039;DHT22;10678;51.002;4.786;2024-03-23T06:27:19;8.00;99.90
21039;DHT22;10678;51.002;4.786;2024-03-23T06:29:44;8.00;99.90
21039;DHT22;10678;51.002;4.786;2024-03-23T06:32:10;8.00;99.90
21039;DHT22;10678;51.002;4.786;2024-03-23T06:34:36;8.10;99.90
21039;DHT22;10678;51.002;4.786;2024-03-23T06:37:01;8.10;99.90
21039;DHT22;10678;51.002;4.786;2024-03-23T06:39:28;8.20;99.90
21039;DHT22;10678;51.002;4.786;2024-03-23T06:41:54;8.10;99.90
21039;DHT22;10678;51.002;4.786;2024-03-23T06:44:20;8.20;99.90
21039;DHT22;10678;51.002;4.786;2024-03-23T06:46:46;8.00;99.90
21039;DHT22;10678;51.002;4.786;2024-03-23T06:49:13;8.10;99.90
21039;DHT22;10678;51.002;4.786;2024-03-23T06:51:38;8.00;99.90
21039;DHT22;10678;51.002;4.786;2024-03-23T06:54:05;8.10;99.90
21039;DHT22;10678;51.002;4.786;2024-03-23T06:56:30;8.10;99.90
21039;DHT22;10678;51.002;4.786;2024-03-23T06:58:57;8.20;99.90
21039;DHT22;10678;51.002;4.786;2024-03-23T07:01:22;8.10;99.90
21039;DHT22;10678;51.002;4.786;2024-03-23T07:03:48;8.20;99.90
21039;DHT22;10678;51.002;4.786;2024-03-23T07:06:13;8.50;99.90
21039;DHT22;10678;51.002;4.786;2024-03-23T07:08:39;8.70;99.90
21039;DHT22;10678;51.002;4.786;2024-03-23T07:11:05;8.80;99.90
21039;DHT22;10678;51.002;4.786;2024-03-23T07:13:31;8.80;99.90
21039;DHT22;10678;51.002;4.786;2024-03-23T07:15:57;8.80;99.90
21039;DHT22;10678;51.002;4.786;2024-03-23T07:18:25;8.90;99.90
21039;DHT22;10678;51.002;4.786;2024-03-23T07:20:57;9.00;99.90
21039;DHT22;10678;51.002;4.786;2024-03-23T07:23:24;9.20;99.90
21039;DHT22;10678;51.002;4.786;2024-03-23T07:26:00;9.50;99.90
21039;DHT22;10678;51.002;4.786;2024-03-23T07:28:26;9.20;99.90
21039;DHT22;10678;51.002;4.786;2024-03-23T07:31:09;9.50;99.90
21039;DHT22;10678;51.002;4.786;2024-03-23T07:33:36;10.10;99.90
21039;DHT22;10678;51.002;4.786;2024-03-23T07:36:02;10.50;99.90
21039;DHT22;10678;51.002;4.786;2024-03-23T07:38:29;10.60;99.90
21039;DHT22;10678;51.002;4.786;2024-03-23T07:41:07;10.40;99.90
21039;DHT22;10678;51.002;4.786;2024-03-23T07:43:33;10.50;99.90
21039;DHT22;10678;51.002;4.786;2024-03-23T07:45:59;11.80;99.90
21039;DHT22;10678;51.002;4.786;2024-03-23T07:48:25;12.60;99.90
21039;DHT22;10678;51.002;4.786;2024-03-23T07:53:25;13.40;99.90
21039;DHT22;10678;51.002;4.786;2024-03-23T07:55:59;13.40;99.90
21039;DHT22;10678;51.002;4.786;2024-03-23T07:58:25;14.00;99.90
21039;DHT22;10678;51.002;4.786;2024-03-23T08:00:52;13.00;99.90
21039;DHT22;10678;51.002;4.786;2024-03-23T08:03:18;12.60;99.90
21039;DHT22;10678;51.002;4.786;2024-03-23T08:05:43;12.80;99.90
21039;DHT22;10678;51.002;4.786;2024-03-23T08:08:09;12.50;99.90
21039;DHT22;10678;51.002;4.786;2024-03-23T08:10:36;12.30;99.90
21039;DHT22;10678;51.002;4.786;2024-03-23T08:13:02;12.20;99.90
21039;DHT22;10678;51.002;4.786;2024-03-23T08:15:30;12.20;99.90
21039;DHT22;10678;51.002;4.786;2024-03-23T08:17:59;12.30;99.90
21039;DHT22;10678;51.002;4.786;2024-03-23T08:20:25;12.30;99.90
21039;DHT22;10678;51.002;4.786;2024-03-23T08:22:50;11.70;99.90
21039;DHT22;10678;51.002;4.786;2024-03-23T08:25:16;11.60;99.90
21039;DHT22;10678;51.002;4.786;2024-03-23T08:27:44;11.80;99.90
21039;DHT22;10678;51.002;4.786;2024-03-23T08:30:10;12.30;99.90
21039;DHT22;10678;51.002;4.786;2024-03-23T08:32:36;12.70;99.90
21039;DHT22;10678;51.002;4.786;2024-03-23T08:35:02;12.30;99.90
21039;DHT22;10678;51.002;4.786;2024-03-23T08:37:28;12.80;99.90
21039;DHT22;10678;51.002;4.786;2024-03-23T08:39:53;14.80;99.90
21039;DHT22;10678;51.002;4.786;2024-03-23T08:42:19;17.40;99.90
21039;DHT22;10678;51.002;4.786;2024-03-23T08:44:46;18.80;99.90
21039;DHT22;10678;51.002;4.786;2024-03-23T08:47:17;19.30;99.90
21039;DHT22;10678;51.002;4.786;2024-03-23T08:49:44;19.00;99.90
21039;DHT22;10678;51.002;4.786;2024-03-23T08:52:10;18.10;99.90
21039;DHT22;10678;51.002;4.786;2024-03-23T08:54:36;16.90;99.90
21039;DHT22;10678;51.002;4.786;2024-03-23T08:57:01;15.60;99.90
21039;DHT22;10678;51.002;4.786;2024-03-23T08:59:27;14.70;99.90
21039;DHT22;10678;51.002;4.786;2024-03-23T09:01:53;14.20;99.90
21039;DHT22;10678;51.002;4.786;2024-03-23T09:04:19;16.60;99.90
21039;DHT22;10678;51.002;4.786;2024-03-23T09:06:45;18.80;99.90
21039;DHT22;10678;51.002;4.786;2024-03-23T09:09:10;18.40;99.90
21039;DHT22;10678;51.002;4.786;2024-03-23T09:11:36;20.40;99.90
21039;DHT22;10678;51.002;4.786;2024-03-23T09:14:03;23.80;99.90
21039;DHT22;10678;51.002;4.786;2024-03-23T09:16:28;26.00;92.60
21039;DHT22;10678;51.002;4.786;2024-03-23T09:18:54;27.10;82.10
21039;DHT22;10678;51.002;4.786;2024-03-23T09:21:20;26.90;77.30
21039;DHT22;10678;51.002;4.786;2024-03-23T09:23:46;27.60;73.50
21039;DHT22;10678;51.002;4.786;2024-03-23T09:26:12;28.40;68.00
21039;DHT22;10678;51.002;4.786;2024-03-23T09:28:38;28.50;63.20
21039;DHT22;10678;51.002;4.786;2024-03-23T09:31:08;27.80;62.50
21039;DHT22;10678;51.002;4.786;2024-03-23T09:33:34;28.60;65.60
21039;DHT22;10678;51.002;4.786;2024-03-23T09:36:04;28.40;60.60
21039;DHT22;10678;51.002;4.786;2024-03-23T09:38:29;29.30;60.50
21039;DHT22;10678;51.002;4.786;2024-03-23T09:40:56;29.50;56.10
21039;DHT22;10678;51.002;4.786;2024-03-23T09:43:22;29.50;57.50
21039;DHT22;10678;51.002;4.786;2024-03-23T09:45:49;27.90;56.80
21039;DHT22;10678;51.002;4.786;2024-03-23T09:48:15;26.50;57.70
21039;DHT22;10678;51.002;4.786;2024-03-23T09:50:42;24.80;62.60
21039;DHT22;10678;51.002;4.786;2024-03-23T09:53:08;22.00;68.00
21039;DHT22;10678;51.002;4.786;2024-03-23T09:55:35;19.60;78.70
21039;DHT22;10678;51.002;4.786;2024-03-23T09:58:04;18.30;90.60
21039;DHT22;10678;51.002;4.786;2024-03-23T10:00:36;18.40;94.10
21039;DHT22;10678;51.002;4.786;2024-03-23T10:03:02;19.80;92.40
21039;DHT22;10678;51.002;4.786;2024-03-23T10:05:31;19.10;90.90
21039;DHT22;10678;51.002;4.786;2024-03-23T10:10:40;15.20;99.90
21039;DHT22;10678;51.002;4.786;2024-03-23T10:13:06;13.60;99.90
21039;DHT22;10678;51.002;4.786;2024-03-23T10:15:35;12.90;99.90
21039;DHT22;10678;51.002;4.786;2024-03-23T10:20:41;11.90;99.90
21039;DHT22;10678;51.002;4.786;2024-03-23T10:23:16;11.90;99.90
21039;DHT22;10678;51.002;4.786;2024-03-23T10:25:41;13.20;99.90
21039;DHT22;10678;51.002;4.786;2024-03-23T10:28:07;13.70;99.90
21039;DHT22;10678;51.002;4.786;2024-03-23T10:30:32;15.40;99.90
21039;DHT22;10678;51.002;4.786;2024-03-23T10:33:11;19.60;99.90
21039;DHT22;10678;51.002;4.786;2024-03-23T10:35:37;21.80;99.90
21039;DHT22;10678;51.002;4.786;2024-03-23T10:38:07;20.90;99.90
21039;DHT22;10678;51.002;4.786;2024-03-23T10:40:36;20.80;99.90
21039;DHT22;10678;51.002;4.786;2024-03-23T10:43:05;20.40;99.90
21039;DHT22;10678;51.002;4.786;2024-03-23T10:45:31;19.50;99.90
21039;DHT22;10678;51.002;4.786;2024-03-23T10:47:57;18.10;99.90
21039;DHT22;10678;51.002;4.786;2024-03-23T10:50:23;16.70;99.90
21039;DHT22;10678;51.002;4.786;2024-03-23T10:52:49;15.20;99.90
21039;DHT22;10678;51.002;4.786;2024-03-23T10:55:19;14.60;99.90
21039;DHT22;10678;51.002;4.786;2024-03-23T10:57:54;14.10;99.90
21039;DHT22;10678;51.002;4.786;2024-03-23T11:00:21;14.80;99.90
21039;DHT22;10678;51.002;4.786;2024-03-23T11:02:48;17.80;99.90
21039;DHT22;10678;51.002;4.786;2024-03-23T11:07:53;20.40;99.90
21039;DHT22;10678;51.002;4.786;2024-03-23T11:10:36;19.40;99.90
21039;DHT22;10678;51.002;4.786;2024-03-23T11:13:21;16.50;99.90
21039;DHT22;10678;51.002;4.786;2024-03-23T11:15:47;14.20;99.90
21039;DHT22;10678;51.002;4.786;2024-03-23T11:18:20;13.50;99.90
21039;DHT22;10678;51.002;4.786;2024-03-23T11:20:46;12.80;99.90
21039;DHT22;10678;51.002;4.786;2024-03-23T11:23:27;12.20;99.90
21039;DHT22;10678;51.002;4.786;2024-03-23T11:25:53;11.20;99.90
21039;DHT22;10678;51.002;4.786;2024-03-23T11:28:19;10.70;99.90
21039;DHT22;10678;51.002;4.786;2024-03-23T11:30:44;10.50;99.90
21039;DHT22;10678;51.002;4.786;2024-03-23T11:33:10;10.50;99.90
21039;DHT22;10678;51.002;4.786;2024-03-23T11:35:39;10.50;99.90
21039;DHT22;10678;51.002;4.786;2024-03-23T11:38:11;10.60;99.90
21039;DHT22;10678;51.002;4.786;2024-03-23T11:40:42;12.90;99.90
21039;DHT22;10678;51.002;4.786;2024-03-23T11:43:09;17.80;99.90
21039;DHT22;10678;51.002;4.786;2024-03-23T11:45:37;21.80;99.90
21039;DHT22;10678;51.002;4.786;2024-03-23T11:48:08;24.90;97.10
21039;DHT22;10678;51.002;4.786;2024-03-23T11:50:40;27.30;80.40
21039;DHT22;10678;51.002;4.786;2024-03-23T11:53:15;28.10;64.90
21039;DHT22;10678;51.002;4.786;2024-03-23T11:58:14;21.70;78.60
21039;DHT22;10678;51.002;4.786;2024-03-23T12:00:40;18.70;90.10
21039;DHT22;10678;51.002;4.786;2024-03-23T12:03:06;17.80;97.10
21039;DHT22;10678;51.002;4.786;2024-03-23T12:05:33;19.50;95.40
21039;DHT22;10678;51.002;4.786;2024-03-23T12:10:51;24.50;79.20
21039;DHT22;10678;51.002;4.786;2024-03-23T12:13:18;24.00;78.00
21039;DHT22;10678;51.002;4.786;2024-03-23T12:15:49;23.70;77.50
21039;DHT22;10678;51.002;4.786;2024-03-23T12:18:15;22.40;81.60
21039;DHT22;10678;51.002;4.786;2024-03-23T12:20:41;20.60;87.70
21039;DHT22;10678;51.002;4.786;2024-03-23T12:23:11;18.10;90.70
21039;DHT22;10678;51.002;4.786;2024-03-23T12:25:40;16.70;99.10
21039;DHT22;10678;51.002;4.786;2024-03-23T12:28:07;17.50;99.50
21039;DHT22;10678;51.002;4.786;2024-03-23T12:30:34;20.60;92.30
21039;DHT22;10678;51.002;4.786;2024-03-23T12:33:00;22.80;83.20
21039;DHT22;10678;51.002;4.786;2024-03-23T12:35:25;25.00;77.50
21039;DHT22;10678;51.002;4.786;2024-03-23T12:37:51;26.30;68.50
21039;DHT22;10678;51.002;4.786;2024-03-23T12:40:17;27.00;63.90
21039;DHT22;10678;51.002;4.786;2024-03-23T12:42:42;25.90;67.80
21039;DHT22;10678;51.002;4.786;2024-03-23T12:45:08;26.10;62.20
21039;DHT22;10678;51.002;4.786;2024-03-23T12:47:34;27.00;61.90
21039;DHT22;10678;51.002;4.786;2024-03-23T12:50:00;28.40;61.90
21039;DHT22;10678;51.002;4.786;2024-03-23T12:52:25;29.80;56.70
21039;DHT22;10678;51.002;4.786;2024-03-23T12:54:57;29.90;57.60
21039;DHT22;10678;51.002;4.786;2024-03-23T12:57:26;30.40;52.90
21039;DHT22;10678;51.002;4.786;2024-03-23T12:59:52;31.20;55.00
21039;DHT22;10678;51.002;4.786;2024-03-23T13:02:22;32.10;50.90
21039;DHT22;10678;51.002;4.786;2024-03-23T13:04:52;31.20;49.60
21039;DHT22;10678;51.002;4.786;2024-03-23T13:07:19;30.70;49.30
21039;DHT22;10678;51.002;4.786;2024-03-23T13:09:45;30.30;49.20
21039;DHT22;10678;51.002;4.786;2024-03-23T13:12:11;29.00;47.10
21039;DHT22;10678;51.002;4.786;2024-03-23T13:14:40;27.20;49.40
21039;DHT22;10678;51.002;4.786;2024-03-23T13:17:06;27.50;50.90
21039;DHT22;10678;51.002;4.786;2024-03-23T13:19:32;26.90;51.30
21039;DHT22;10678;51.002;4.786;2024-03-23T13:21:59;25.20;52.60
21039;DHT22;10678;51.002;4.786;2024-03-23T13:24:29;22.30;57.60
21039;DHT22;10678;51.002;4.786;2024-03-23T13:26:55;20.80;60.70
21039;DHT22;10678;51.002;4.786;2024-03-23T13:29:21;19.40;65.80
21039;DHT22;10678;51.002;4.786;2024-03-23T13:31:51;18.30;69.80
21039;DHT22;10678;51.002;4.786;2024-03-23T13:34:17;17.20;69.80
21039;DHT22;10678;51.002;4.786;2024-03-23T13:36:46;16.10;78.20
21039;DHT22;10678;51.002;4.786;2024-03-23T13:39:13;15.20;84.00
21039;DHT22;10678;51.002;4.786;2024-03-23T13:41:39;14.20;91.00
21039;DHT22;10678;51.002;4.786;2024-03-23T13:44:06;13.50;92.40
21039;DHT22;10678;51.002;4.786;2024-03-23T13:46:32;12.90;95.50
21039;DHT22;10678;51.002;4.786;2024-03-23T13:48:58;12.60;99.40
21039;DHT22;10678;51.002;4.786;2024-03-23T13:51:24;12.70;99.90
21039;DHT22;10678;51.002;4.786;2024-03-23T13:53:55;12.80;99.90
21039;DHT22;10678;51.002;4.786;2024-03-23T13:56:30;12.90;99.90
21039;DHT22;10678;51.002;4.786;2024-03-23T13:58:57;12.90;99.90
21039;DHT22;10678;51.002;4.786;2024-03-23T14:01:23;13.10;99.90
21039;DHT22;10678;51.002;4.786;2024-03-23T14:03:49;13.40;99.90
21039;DHT22;10678;51.002;4.786;2024-03-23T14:06:15;13.70;99.90
21039;DHT22;10678;51.002;4.786;2024-03-23T14:08:41;13.50;99.90
21039;DHT22;10678;51.002;4.786;2024-03-23T14:11:10;13.30;99.90
21039;DHT22;10678;51.002;4.786;2024-03-23T14:13:36;12.80;99.90
21039;DHT22;10678;51.002;4.786;2024-03-23T14:16:03;12.70;99.90
21039;DHT22;10678;51.002;4.786;2024-03-23T14:18:29;12.50;99.90
21039;DHT22;10678;51.002;4.786;2024-03-23T14:20:59;12.60;99.90
21039;DHT22;10678;51.002;4.786;2024-03-23T14:23:30;12.60;99.90
21039;DHT22;10678;51.002;4.786;2024-03-23T14:25:56;12.10;99.90
21039;DHT22;10678;51.002;4.786;2024-03-23T14:28:22;11.90;99.90
21039;DHT22;10678;51.002;4.786;2024-03-23T14:30:49;11.70;99.90
21039;DHT22;10678;51.002;4.786;2024-03-23T14:33:16;11.80;99.90
21039;DHT22;10678;51.002;4.786;2024-03-23T14:35:42;11.80;99.90
21039;DHT22;10678;51.002;4.786;2024-03-23T14:38:07;11.80;99.90
21039;DHT22;10678;51.002;4.786;2024-03-23T14:40:33;11.70;99.90
21039;DHT22;10678;51.002;4.786;2024-03-23T14:42:59;11.80;99.90
21039;DHT22;10678;51.002;4.786;2024-03-23T14:45:25;12.00;99.90
21039;DHT22;10678;51.002;4.786;2024-03-23T14:47:51;11.90;99.90
21039;DHT22;10678;51.002;4.786;2024-03-23T14:50:17;11.90;99.90
21039;DHT22;10678;51.002;4.786;2024-03-23T14:52:46;11.80;99.90
21039;DHT22;10678;51.002;4.786;2024-03-23T14:55:12;11.80;99.90
21039;DHT22;10678;51.002;4.786;2024-03-23T14:57:39;11.90;99.90
21039;DHT22;10678;51.002;4.786;2024-03-23T15:00:09;11.90;99.90
21039;DHT22;10678;51.002;4.786;2024-03-23T15:02:39;12.00;99.90
21039;DHT22;10678;51.002;4.786;2024-03-23T15:05:07;12.00;99.90
21039;DHT22;10678;51.002;4.786;2024-03-23T15:07:36;12.00;99.90
21039;DHT22;10678;51.002;4.786;2024-03-23T15:10:04;11.90;99.90
21039;DHT22;10678;51.002;4.786;2024-03-23T15:12:31;11.90;99.90
21039;DHT22;10678;51.002;4.786;2024-03-23T15:14:58;12.00;99.90
21039;DHT22;10678;51.002;4.786;2024-03-23T15:17:25;11.90;99.90
21039;DHT22;10678;51.002;4.786;2024-03-23T15:19:50;12.00;99.90
21039;DHT22;10678;51.002;4.786;2024-03-23T15:22:16;12.20;99.90
21039;DHT22;10678;51.002;4.786;2024-03-23T15:24:42;12.30;99.90
21039;DHT22;10678;51.002;4.786;2024-03-23T15:27:07;12.60;99.90
21039;DHT22;10678;51.002;4.786;2024-03-23T15:29:34;12.50;99.90
21039;DHT22;10678;51.002;4.786;2024-03-23T15:32:02;12.20;99.90
21039;DHT22;10678;51.002;4.786;2024-03-23T15:34:29;12.10;99.90
21039;DHT22;10678;51.002;4.786;2024-03-23T15:36:54;11.80;99.90
21039;DHT22;10678;51.002;4.786;2024-03-23T15:39:20;11.70;99.90
21039;DHT22;10678;51.002;4.786;2024-03-23T15:41:48;11.60;99.90
21039;DHT22;10678;51.002;4.786;2024-03-23T15:44:13;11.60;99.90
21039;DHT22;10678;51.002;4.786;2024-03-23T15:46:39;11.50;99.90
21039;DHT22;10678;51.002;4.786;2024-03-23T15:49:05;11.50;99.90
21039;DHT22;10678;51.002;4.786;2024-03-23T15:51:31;11.50;99.90
21039;DHT22;10678;51.002;4.786;2024-03-23T15:54:00;11.30;99.90
21039;DHT22;10678;51.002;4.786;2024-03-23T15:56:26;11.20;99.90
21039;DHT22;10678;51.002;4.786;2024-03-23T15:58:51;10.90;99.90
21039;DHT22;10678;51.002;4.786;2024-03-23T16:01:17;10.80;99.90
21039;DHT22;10678;51.002;4.786;2024-03-23T16:03:43;11.10;99.90
21039;DHT22;10678;51.002;4.786;2024-03-23T16:06:09;11.30;99.90
21039;DHT22;10678;51.002;4.786;2024-03-23T16:08:35;11.60;99.90
21039;DHT22;10678;51.002;4.786;2024-03-23T16:11:01;11.70;99.90
21039;DHT22;10678;51.002;4.786;2024-03-23T16:13:28;11.60;99.90
21039;DHT22;10678;51.002;4.786;2024-03-23T16:15:58;11.60;99.90
21039;DHT22;10678;51.002;4.786;2024-03-23T16:18:24;11.40;99.90
21039;DHT22;10678;51.002;4.786;2024-03-23T16:20:57;11.40;99.90
21039;DHT22;10678;51.002;4.786;2024-03-23T16:23:24;11.20;99.90
21039;DHT22;10678;51.002;4.786;2024-03-23T16:25:54;11.10;99.90
21039;DHT22;10678;51.002;4.786;2024-03-23T16:28:26;10.90;99.90
21039;DHT22;10678;51.002;4.786;2024-03-23T16:30:55;10.60;99.90
21039;DHT22;10678;51.002;4.786;2024-03-23T16:33:21;10.60;99.90
21039;DHT22;10678;51.002;4.786;2024-03-23T16:36:03;10.50;99.90
21039;DHT22;10678;51.002;4.786;2024-03-23T16:38:30;10.40;99.90
21039;DHT22;10678;51.002;4.786;2024-03-23T16:40:58;10.30;99.90
21039;DHT22;10678;51.002;4.786;2024-03-23T16:43:24;10.20;99.90
21039;DHT22;10678;51.002;4.786;2024-03-23T16:46:00;10.20;99.90